sensor_id;sensor_type;location;lat;lon;timestamp;temperature;humidity
35894;DHT22;21994;48.204;16.516;2022-12-10T00:01:25;3.00;99.90
35894;DHT22;21994;48.204;16.516;2022-12-10T00:03:52;3.00;99.90
35894;DHT22;21994;48.204;16.516;2022-12-10T00:06:19;3.10;99.90
35894;DHT22;21994;48.204;16.516;2022-12-10T00:08:47;3.10;99.90
35894;DHT22;21994;48.204;16.516;2022-12-10T00:11:14;3.00;99.90
35894;DHT22;21994;48.204;16.516;2022-12-10T00:13:40;3.00;99.90
35894;DHT22;21994;48.204;16.516;2022-12-10T00:16:08;3.00;99.90
35894;DHT22;21994;48.204;16.516;2022-12-10T00:18:36;3.00;99.90
35894;DHT22;21994;48.204;16.516;2022-12-10T00:21:02;3.00;99.90
35894;DHT22;21994;48.204;16.516;2022-12-10T00:23:30;3.00;99.90
35894;DHT22;21994;48.204;16.516;2022-12-10T00:26:04;3.10;99.90
35894;DHT22;21994;48.204;16.516;2022-12-10T00:28:31;3.10;99.90
35894;DHT22;21994;48.204;16.516;2022-12-10T00:31:04;3.10;99.90
35894;DHT22;21994;48.204;16.516;2022-12-10T00:33:31;3.10;99.90
35894;DHT22;21994;48.204;16.516;2022-12-10T00:36:01;3.10;99.90
35894;DHT22;21994;48.204;16.516;2022-12-10T00:38:30;3.10;99.90
35894;DHT22;21994;48.204;16.516;2022-12-10T00:40:59;3.10;99.90
35894;DHT22;21994;48.204;16.516;2022-12-10T00:43:25;3.10;99.90
35894;DHT22;21994;48.204;16.516;2022-12-10T00:45:52;3.10;99.90
35894;DHT22;21994;48.204;16.516;2022-12-10T00:48:18;3.10;99.90
35894;DHT22;21994;48.204;16.516;2022-12-10T00:50:44;3.10;99.90
35894;DHT22;21994;48.204;16.516;2022-12-10T00:53:09;3.10;99.90
35894;DHT22;21994;48.204;16.516;2022-12-10T00:55:35;3.10;99.90
35894;DHT22;21994;48.204;16.516;2022-12-10T00:58:01;3.10;99.90
35894;DHT22;21994;48.204;16.516;2022-12-10T01:00:27;3.20;99.90
35894;DHT22;21994;48.204;16.516;2022-12-10T01:02:52;3.10;99.90
35894;DHT22;21994;48.204;16.516;2022-12-10T01:05:18;3.10;99.90
35894;DHT22;21994;48.204;16.516;2022-12-10T01:07:44;3.10;99.90
35894;DHT22;21994;48.204;16.516;2022-12-10T01:10:10;3.10;99.90
35894;DHT22;21994;48.204;16.516;2022-12-10T01:12:35;3.20;99.90
35894;DHT22;21994;48.204;16.516;2022-12-10T01:15:01;3.20;99.90
35894;DHT22;21994;48.204;16.516;2022-12-10T01:17:27;3.20;99.90
35894;DHT22;21994;48.204;16.516;2022-12-10T01:19:53;3.30;99.90
35894;DHT22;21994;48.204;16.516;2022-12-10T01:22:19;3.30;99.90
35894;DHT22;21994;48.204;16.516;2022-12-10T01:24:44;3.20;99.90
35894;DHT22;21994;48.204;16.516;2022-12-10T01:27:10;3.30;99.90
35894;DHT22;21994;48.204;16.516;2022-12-10T01:29:36;3.20;99.90
35894;DHT22;21994;48.204;16.516;2022-12-10T01:32:01;3.20;99.90
35894;DHT22;21994;48.204;16.516;2022-12-10T01:34:27;3.20;99.90
35894;DHT22;21994;48.204;16.516;2022-12-10T01:36:54;3.30;99.90
35894;DHT22;21994;48.204;16.516;2022-12-10T01:39:20;3.30;99.90
35894;DHT22;21994;48.204;16.516;2022-12-10T01:41:54;3.30;99.90
35894;DHT22;21994;48.204;16.516;2022-12-10T01:46:48;3.30;99.90
35894;DHT22;21994;48.204;16.516;2022-12-10T01:49:17;3.30;99.90
35894;DHT22;21994;48.204;16.516;2022-12-10T01:51:48;3.20;99.90
35894;DHT22;21994;48.204;16.516;2022-12-10T01:54:18;3.30;99.90
35894;DHT22;21994;48.204;16.516;2022-12-10T01:56:47;3.30;99.90
35894;DHT22;21994;48.204;16.516;2022-12-10T01:59:19;3.20;99.90
35894;DHT22;21994;48.204;16.516;2022-12-10T02:10:04;3.20;99.90
35894;DHT22;21994;48.204;16.516;2022-12-10T02:12:48;3.30;99.90
35894;DHT22;21994;48.204;16.516;2022-12-10T02:15:17;3.30;99.90
35894;DHT22;21994;48.204;16.516;2022-12-10T02:17:48;3.30;99.90
35894;DHT22;21994;48.204;16.516;2022-12-10T02:20:54;3.30;99.90
35894;DHT22;21994;48.204;16.516;2022-12-10T02:23:20;3.30;99.90
35894;DHT22;21994;48.204;16.516;2022-12-10T02:26:05;3.30;99.90
35894;DHT22;21994;48.204;16.516;2022-12-10T02:31:14;3.40;99.90
35894;DHT22;21994;48.204;16.516;2022-12-10T02:33:43;3.30;99.90
35894;DHT22;21994;48.204;16.516;2022-12-10T02:36:12;3.30;99.90
35894;DHT22;21994;48.204;16.516;2022-12-10T02:38:39;3.40;99.90
35894;DHT22;21994;48.204;16.516;2022-12-10T02:41:16;3.40;99.90
35894;DHT22;21994;48.204;16.516;2022-12-10T02:43:49;3.40;99.90
35894;DHT22;21994;48.204;16.516;2022-12-10T02:46:17;3.40;99.90
35894;DHT22;21994;48.204;16.516;2022-12-10T02:48:43;3.40;99.90
35894;DHT22;21994;48.204;16.516;2022-12-10T02:51:10;3.40;99.90
35894;DHT22;21994;48.204;16.516;2022-12-10T02:53:43;3.40;99.90
35894;DHT22;21994;48.204;16.516;2022-12-10T02:59:24;3.40;99.90
35894;DHT22;21994;48.204;16.516;2022-12-10T03:04:55;3.30;99.90
35894;DHT22;21994;48.204;16.516;2022-12-10T03:07:27;3.30;99.90
35894;DHT22;21994;48.204;16.516;2022-12-10T03:10:00;3.40;99.90
35894;DHT22;21994;48.204;16.516;2022-12-10T03:12:42;3.30;99.90
35894;DHT22;21994;48.204;16.516;2022-12-10T03:15:13;3.30;99.90
35894;DHT22;21994;48.204;16.516;2022-12-10T03:17:39;3.40;99.90
35894;DHT22;21994;48.204;16.516;2022-12-10T03:20:06;3.30;99.90
35894;DHT22;21994;48.204;16.516;2022-12-10T03:22:33;3.40;99.90
35894;DHT22;21994;48.204;16.516;2022-12-10T03:25:00;3.20;99.90
35894;DHT22;21994;48.204;16.516;2022-12-10T03:27:26;3.30;99.90
35894;DHT22;21994;48.204;16.516;2022-12-10T03:29:53;3.20;99.90
35894;DHT22;21994;48.204;16.516;2022-12-10T03:32:21;3.20;99.90
35894;DHT22;21994;48.204;16.516;2022-12-10T03:34:47;3.30;99.90
35894;DHT22;21994;48.204;16.516;2022-12-10T03:37:14;3.30;99.90
35894;DHT22;21994;48.204;16.516;2022-12-10T03:39:40;3.30;99.90
35894;DHT22;21994;48.204;16.516;2022-12-10T03:42:06;3.40;99.90
35894;DHT22;21994;48.204;16.516;2022-12-10T03:44:33;3.30;99.90
35894;DHT22;21994;48.204;16.516;2022-12-10T03:47:01;3.40;99.90
35894;DHT22;21994;48.204;16.516;2022-12-10T03:49:27;3.30;99.90
35894;DHT22;21994;48.204;16.516;2022-12-10T03:51:53;3.30;99.90
35894;DHT22;21994;48.204;16.516;2022-12-10T03:54:19;3.40;99.90
35894;DHT22;21994;48.204;16.516;2022-12-10T03:56:45;3.30;99.90
35894;DHT22;21994;48.204;16.516;2022-12-10T03:59:11;3.30;99.90
35894;DHT22;21994;48.204;16.516;2022-12-10T04:01:36;3.30;99.90
35894;DHT22;21994;48.204;16.516;2022-12-10T04:04:03;3.30;99.90
35894;DHT22;21994;48.204;16.516;2022-12-10T04:06:29;3.30;99.90
35894;DHT22;21994;48.204;16.516;2022-12-10T04:08:55;3.30;99.90
35894;DHT22;21994;48.204;16.516;2022-12-10T04:11:20;3.30;99.90
35894;DHT22;21994;48.204;16.516;2022-12-10T04:13:46;3.30;99.90
35894;DHT22;21994;48.204;16.516;2022-12-10T04:16:31;3.30;99.90
35894;DHT22;21994;48.204;16.516;2022-12-10T04:18:59;3.30;99.90
35894;DHT22;21994;48.204;16.516;2022-12-10T04:21:28;3.30;99.90
35894;DHT22;21994;48.204;16.516;2022-12-10T04:24:14;3.30;99.90
35894;DHT22;21994;48.204;16.516;2022-12-10T04:27:00;3.40;99.90
35894;DHT22;21994;48.204;16.516;2022-12-10T04:29:29;3.40;99.90
35894;DHT22;21994;48.204;16.516;2022-12-10T04:31:55;3.40;99.90
35894;DHT22;21994;48.204;16.516;2022-12-10T04:34:21;3.40;99.90
35894;DHT22;21994;48.204;16.516;2022-12-10T04:36:48;3.50;99.90
35894;DHT22;21994;48.204;16.516;2022-12-10T04:39:14;3.50;99.90
35894;DHT22;21994;48.204;16.516;2022-12-10T04:41:40;3.40;99.90
35894;DHT22;21994;48.204;16.516;2022-12-10T04:44:07;3.50;99.90
35894;DHT22;21994;48.204;16.516;2022-12-10T04:46:33;3.40;99.90
35894;DHT22;21994;48.204;16.516;2022-12-10T04:49:00;3.50;99.90
35894;DHT22;21994;48.204;16.516;2022-12-10T04:51:26;3.50;99.90
35894;DHT22;21994;48.204;16.516;2022-12-10T04:53:52;3.50;99.90
35894;DHT22;21994;48.204;16.516;2022-12-10T04:56:17;3.60;99.90
35894;DHT22;21994;48.204;16.516;2022-12-10T04:58:43;3.50;99.90
35894;DHT22;21994;48.204;16.516;2022-12-10T05:01:10;3.50;99.90
35894;DHT22;21994;48.204;16.516;2022-12-10T05:03:36;3.50;99.90
35894;DHT22;21994;48.204;16.516;2022-12-10T05:06:06;3.50;99.90
35894;DHT22;21994;48.204;16.516;2022-12-10T05:08:34;3.50;99.90
35894;DHT22;21994;48.204;16.516;2022-12-10T05:11:01;3.50;99.90
35894;DHT22;21994;48.204;16.516;2022-12-10T05:13:28;3.50;99.90
35894;DHT22;21994;48.204;16.516;2022-12-10T05:15:54;3.60;99.90
35894;DHT22;21994;48.204;16.516;2022-12-10T05:18:20;3.50;99.90
35894;DHT22;21994;48.204;16.516;2022-12-10T05:20:46;3.50;99.90
35894;DHT22;21994;48.204;16.516;2022-12-10T05:23:11;3.50;99.90
35894;DHT22;21994;48.204;16.516;2022-12-10T05:28:25;3.50;99.90
35894;DHT22;21994;48.204;16.516;2022-12-10T05:30:51;3.50;99.90
35894;DHT22;21994;48.204;16.516;2022-12-10T05:33:17;3.50;99.90
35894;DHT22;21994;48.204;16.516;2022-12-10T05:35:43;3.40;99.90
35894;DHT22;21994;48.204;16.516;2022-12-10T05:38:09;3.50;99.90
35894;DHT22;21994;48.204;16.516;2022-12-10T05:40:38;3.50;99.90
35894;DHT22;21994;48.204;16.516;2022-12-10T05:43:04;3.40;99.90
35894;DHT22;21994;48.204;16.516;2022-12-10T05:45:31;3.40;99.90
35894;DHT22;21994;48.204;16.516;2022-12-10T05:47:57;3.50;99.90
35894;DHT22;21994;48.204;16.516;2022-12-10T05:50:22;3.50;99.90
35894;DHT22;21994;48.204;16.516;2022-12-10T05:52:49;3.50;99.90
35894;DHT22;21994;48.204;16.516;2022-12-10T05:55:16;3.50;99.90
35894;DHT22;21994;48.204;16.516;2022-12-10T05:57:41;3.40;99.90
35894;DHT22;21994;48.204;16.516;2022-12-10T06:00:07;3.50;99.90
35894;DHT22;21994;48.204;16.516;2022-12-10T06:02:34;3.40;99.90
35894;DHT22;21994;48.204;16.516;2022-12-10T06:04:59;3.40;99.90
35894;DHT22;21994;48.204;16.516;2022-12-10T06:07:25;3.40;99.90
35894;DHT22;21994;48.204;16.516;2022-12-10T06:09:51;3.30;99.90
35894;DHT22;21994;48.204;16.516;2022-12-10T06:12:16;3.40;99.90
35894;DHT22;21994;48.204;16.516;2022-12-10T06:14:42;3.50;99.90
35894;DHT22;21994;48.204;16.516;2022-12-10T06:17:08;3.50;99.90
35894;DHT22;21994;48.204;16.516;2022-12-10T06:19:34;3.40;99.90
35894;DHT22;21994;48.204;16.516;2022-12-10T06:21:59;3.30;99.90
35894;DHT22;21994;48.204;16.516;2022-12-10T06:24:25;3.40;99.90
35894;DHT22;21994;48.204;16.516;2022-12-10T06:26:51;3.30;99.90
35894;DHT22;21994;48.204;16.516;2022-12-10T06:29:17;3.30;99.90
35894;DHT22;21994;48.204;16.516;2022-12-10T06:31:43;3.30;99.90
35894;DHT22;21994;48.204;16.516;2022-12-10T06:34:12;3.30;99.90
35894;DHT22;21994;48.204;16.516;2022-12-10T06:36:37;3.30;99.90
35894;DHT22;21994;48.204;16.516;2022-12-10T06:39:03;3.30;99.90
35894;DHT22;21994;48.204;16.516;2022-12-10T06:41:29;3.30;99.90
35894;DHT22;21994;48.204;16.516;2022-12-10T06:43:55;3.40;99.90
35894;DHT22;21994;48.204;16.516;2022-12-10T06:46:24;3.30;99.90
35894;DHT22;21994;48.204;16.516;2022-12-10T06:48:50;3.30;99.90
35894;DHT22;21994;48.204;16.516;2022-12-10T06:51:16;3.20;99.90
35894;DHT22;21994;48.204;16.516;2022-12-10T06:53:43;3.30;99.90
35894;DHT22;21994;48.204;16.516;2022-12-10T06:56:11;3.20;99.90
35894;DHT22;21994;48.204;16.516;2022-12-10T06:58:38;3.30;99.90
35894;DHT22;21994;48.204;16.516;2022-12-10T07:01:06;3.30;99.90
35894;DHT22;21994;48.204;16.516;2022-12-10T07:03:34;3.40;99.90
35894;DHT22;21994;48.204;16.516;2022-12-10T07:06:01;3.40;99.90
35894;DHT22;21994;48.204;16.516;2022-12-10T07:08:27;3.40;99.90
35894;DHT22;21994;48.204;16.516;2022-12-10T07:10:53;3.50;99.90
35894;DHT22;21994;48.204;16.516;2022-12-10T07:13:19;3.50;99.90
35894;DHT22;21994;48.204;16.516;2022-12-10T07:15:45;3.50;99.90
35894;DHT22;21994;48.204;16.516;2022-12-10T07:18:11;3.60;99.90
35894;DHT22;21994;48.204;16.516;2022-12-10T07:20:36;3.70;99.90
35894;DHT22;21994;48.204;16.516;2022-12-10T07:23:02;3.60;99.90
35894;DHT22;21994;48.204;16.516;2022-12-10T07:25:28;3.60;99.90
35894;DHT22;21994;48.204;16.516;2022-12-10T07:27:55;3.60;99.90
35894;DHT22;21994;48.204;16.516;2022-12-10T07:30:21;3.60;99.90
35894;DHT22;21994;48.204;16.516;2022-12-10T07:32:46;3.50;99.90
35894;DHT22;21994;48.204;16.516;2022-12-10T07:35:12;3.50;99.90
35894;DHT22;21994;48.204;16.516;2022-12-10T07:37:38;3.50;99.90
35894;DHT22;21994;48.204;16.516;2022-12-10T07:40:04;3.60;99.90
35894;DHT22;21994;48.204;16.516;2022-12-10T07:42:30;3.60;99.90
35894;DHT22;21994;48.204;16.516;2022-12-10T07:44:56;3.70;99.90
35894;DHT22;21994;48.204;16.516;2022-12-10T07:47:21;3.70;99.90
35894;DHT22;21994;48.204;16.516;2022-12-10T07:49:47;3.80;99.90
35894;DHT22;21994;48.204;16.516;2022-12-10T07:52:13;3.70;99.90
35894;DHT22;21994;48.204;16.516;2022-12-10T07:54:38;3.70;99.90
35894;DHT22;21994;48.204;16.516;2022-12-10T07:57:04;3.70;99.90
35894;DHT22;21994;48.204;16.516;2022-12-10T07:59:30;3.60;99.90
35894;DHT22;21994;48.204;16.516;2022-12-10T08:01:56;3.70;99.90
35894;DHT22;21994;48.204;16.516;2022-12-10T08:04:22;3.80;99.90
35894;DHT22;21994;48.204;16.516;2022-12-10T08:06:48;3.70;99.90
35894;DHT22;21994;48.204;16.516;2022-12-10T08:09:14;3.70;99.90
35894;DHT22;21994;48.204;16.516;2022-12-10T08:11:39;3.70;99.90
35894;DHT22;21994;48.204;16.516;2022-12-10T08:14:05;3.80;99.90
35894;DHT22;21994;48.204;16.516;2022-12-10T08:16:31;3.80;99.90
35894;DHT22;21994;48.204;16.516;2022-12-10T08:18:58;3.80;99.90
35894;DHT22;21994;48.204;16.516;2022-12-10T08:21:26;3.80;99.90
35894;DHT22;21994;48.204;16.516;2022-12-10T08:23:54;3.80;99.90
35894;DHT22;21994;48.204;16.516;2022-12-10T08:26:21;3.90;99.90
35894;DHT22;21994;48.204;16.516;2022-12-10T08:28:48;3.80;99.90
35894;DHT22;21994;48.204;16.516;2022-12-10T08:31:15;3.90;99.90
35894;DHT22;21994;48.204;16.516;2022-12-10T08:33:41;3.90;99.90
35894;DHT22;21994;48.204;16.516;2022-12-10T08:36:08;3.90;99.90
35894;DHT22;21994;48.204;16.516;2022-12-10T08:38:35;3.80;99.90
35894;DHT22;21994;48.204;16.516;2022-12-10T08:41:15;3.80;99.90
35894;DHT22;21994;48.204;16.516;2022-12-10T08:43:45;3.90;99.90
35894;DHT22;21994;48.204;16.516;2022-12-10T08:46:12;3.80;99.90
35894;DHT22;21994;48.204;16.516;2022-12-10T08:48:38;3.70;99.90
35894;DHT22;21994;48.204;16.516;2022-12-10T08:51:05;3.70;99.90
35894;DHT22;21994;48.204;16.516;2022-12-10T08:53:31;3.80;99.90
35894;DHT22;21994;48.204;16.516;2022-12-10T08:55:57;3.80;99.90
35894;DHT22;21994;48.204;16.516;2022-12-10T08:58:23;3.70;99.90
35894;DHT22;21994;48.204;16.516;2022-12-10T09:00:49;3.70;99.90
35894;DHT22;21994;48.204;16.516;2022-12-10T09:03:15;3.80;99.90
35894;DHT22;21994;48.204;16.516;2022-12-10T09:05:41;3.70;99.90
35894;DHT22;21994;48.204;16.516;2022-12-10T09:08:07;3.80;99.90
35894;DHT22;21994;48.204;16.516;2022-12-10T09:10:33;3.80;99.90
35894;DHT22;21994;48.204;16.516;2022-12-10T09:13:01;3.80;99.90
35894;DHT22;21994;48.204;16.516;2022-12-10T09:15:26;3.90;99.90
35894;DHT22;21994;48.204;16.516;2022-12-10T09:17:52;3.90;99.90
35894;DHT22;21994;48.204;16.516;2022-12-10T09:20:18;3.80;99.90
35894;DHT22;21994;48.204;16.516;2022-12-10T09:22:44;3.90;99.90
35894;DHT22;21994;48.204;16.516;2022-12-10T09:25:09;4.00;99.90
35894;DHT22;21994;48.204;16.516;2022-12-10T09:27:35;4.00;99.90
35894;DHT22;21994;48.204;16.516;2022-12-10T09:30:02;4.00;99.90
35894;DHT22;21994;48.204;16.516;2022-12-10T09:32:29;4.10;99.90
35894;DHT22;21994;48.204;16.516;2022-12-10T09:34:55;4.10;99.90
35894;DHT22;21994;48.204;16.516;2022-12-10T09:37:21;4.10;99.90
35894;DHT22;21994;48.204;16.516;2022-12-10T09:39:46;4.10;99.90
35894;DHT22;21994;48.204;16.516;2022-12-10T09:45:09;4.00;99.90
35894;DHT22;21994;48.204;16.516;2022-12-10T09:47:45;4.10;99.90
35894;DHT22;21994;48.204;16.516;2022-12-10T09:50:34;4.00;99.90
35894;DHT22;21994;48.204;16.516;2022-12-10T09:53:07;4.10;99.90
35894;DHT22;21994;48.204;16.516;2022-12-10T09:55:35;4.10;99.90
35894;DHT22;21994;48.204;16.516;2022-12-10T09:58:04;4.10;99.90
35894;DHT22;21994;48.204;16.516;2022-12-10T10:00:35;4.10;99.90
35894;DHT22;21994;48.204;16.516;2022-12-10T10:03:03;4.10;99.90
35894;DHT22;21994;48.204;16.516;2022-12-10T10:05:37;4.20;99.90
35894;DHT22;21994;48.204;16.516;2022-12-10T10:10:53;4.10;99.90
35894;DHT22;21994;48.204;16.516;2022-12-10T10:13:23;4.20;99.90
35894;DHT22;21994;48.204;16.516;2022-12-10T10:15:50;4.20;99.90
35894;DHT22;21994;48.204;16.516;2022-12-10T10:18:36;4.30;99.90
35894;DHT22;21994;48.204;16.516;2022-12-10T10:21:12;4.40;99.90
35894;DHT22;21994;48.204;16.516;2022-12-10T10:23:46;4.30;99.90
35894;DHT22;21994;48.204;16.516;2022-12-10T10:26:13;4.40;99.90
35894;DHT22;21994;48.204;16.516;2022-12-10T10:28:38;4.40;99.90
35894;DHT22;21994;48.204;16.516;2022-12-10T10:31:40;4.40;99.90
35894;DHT22;21994;48.204;16.516;2022-12-10T10:34:00;4.50;99.90
35894;DHT22;21994;48.204;16.516;2022-12-10T10:36:31;4.60;99.90
35894;DHT22;21994;48.204;16.516;2022-12-10T10:41:44;4.50;99.90
35894;DHT22;21994;48.204;16.516;2022-12-10T10:44:25;4.50;99.90
35894;DHT22;21994;48.204;16.516;2022-12-10T10:46:53;4.50;99.90
35894;DHT22;21994;48.204;16.516;2022-12-10T10:49:27;4.60;99.90
35894;DHT22;21994;48.204;16.516;2022-12-10T10:52:20;4.50;99.90
35894;DHT22;21994;48.204;16.516;2022-12-10T10:54:46;4.60;99.90
35894;DHT22;21994;48.204;16.516;2022-12-10T10:57:14;4.70;99.90
35894;DHT22;21994;48.204;16.516;2022-12-10T10:59:46;4.80;99.90
35894;DHT22;21994;48.204;16.516;2022-12-10T11:04:48;4.90;99.90
35894;DHT22;21994;48.204;16.516;2022-12-10T11:07:21;4.90;99.90
35894;DHT22;21994;48.204;16.516;2022-12-10T11:09:52;4.90;99.90
35894;DHT22;21994;48.204;16.516;2022-12-10T11:12:21;4.90;99.90
35894;DHT22;21994;48.204;16.516;2022-12-10T11:14:53;4.90;99.90
35894;DHT22;21994;48.204;16.516;2022-12-10T11:17:20;4.90;99.90
35894;DHT22;21994;48.204;16.516;2022-12-10T11:20:00;4.90;99.90
35894;DHT22;21994;48.204;16.516;2022-12-10T11:22:37;4.80;99.90
35894;DHT22;21994;48.204;16.516;2022-12-10T11:25:17;4.70;99.90
35894;DHT22;21994;48.204;16.516;2022-12-10T11:27:48;4.70;99.90
35894;DHT22;21994;48.204;16.516;2022-12-10T11:30:20;4.70;99.90
35894;DHT22;21994;48.204;16.516;2022-12-10T11:35:35;4.70;99.90
35894;DHT22;21994;48.204;16.516;2022-12-10T11:40:50;4.60;99.90
35894;DHT22;21994;48.204;16.516;2022-12-10T11:54:49;4.50;99.90
35894;DHT22;21994;48.204;16.516;2022-12-10T12:00:00;4.60;99.90
35894;DHT22;21994;48.204;16.516;2022-12-10T12:05:16;4.40;99.90
35894;DHT22;21994;48.204;16.516;2022-12-10T12:08:17;4.40;99.90
35894;DHT22;21994;48.204;16.516;2022-12-10T12:13:20;4.40;99.90
35894;DHT22;21994;48.204;16.516;2022-12-10T12:16:11;4.40;99.90
35894;DHT22;21994;48.204;16.516;2022-12-10T12:21:17;4.40;99.90
35894;DHT22;21994;48.204;16.516;2022-12-10T12:24:03;4.30;99.90
35894;DHT22;21994;48.204;16.516;2022-12-10T12:26:38;4.50;99.90
35894;DHT22;21994;48.204;16.516;2022-12-10T12:31:49;4.50;99.90
35894;DHT22;21994;48.204;16.516;2022-12-10T12:37:10;4.40;99.90
35894;DHT22;21994;48.204;16.516;2022-12-10T12:39:53;4.40;99.90
35894;DHT22;21994;48.204;16.516;2022-12-10T12:42:58;4.40;99.90
35894;DHT22;21994;48.204;16.516;2022-12-10T12:48:22;4.40;99.90
35894;DHT22;21994;48.204;16.516;2022-12-10T12:50:57;4.40;99.90
35894;DHT22;21994;48.204;16.516;2022-12-10T12:53:26;4.40;99.90
35894;DHT22;21994;48.204;16.516;2022-12-10T12:56:00;4.30;99.90
35894;DHT22;21994;48.204;16.516;2022-12-10T12:58:31;4.30;99.90
35894;DHT22;21994;48.204;16.516;2022-12-10T13:01:00;4.30;99.90
35894;DHT22;21994;48.204;16.516;2022-12-10T13:03:33;4.30;99.90
35894;DHT22;21994;48.204;16.516;2022-12-10T13:06:12;4.40;99.90
35894;DHT22;21994;48.204;16.516;2022-12-10T13:08:47;4.30;99.90
35894;DHT22;21994;48.204;16.516;2022-12-10T13:13:40;4.40;99.90
35894;DHT22;21994;48.204;16.516;2022-12-10T13:24:18;4.40;99.90
35894;DHT22;21994;48.204;16.516;2022-12-10T13:29:29;4.30;99.90
35894;DHT22;21994;48.204;16.516;2022-12-10T13:32:15;4.30;99.90
35894;DHT22;21994;48.204;16.516;2022-12-10T13:34:45;4.40;99.90
35894;DHT22;21994;48.204;16.516;2022-12-10T13:37:16;4.30;99.90
35894;DHT22;21994;48.204;16.516;2022-12-10T13:39:48;4.40;99.90
35894;DHT22;21994;48.204;16.516;2022-12-10T13:42:30;4.40;99.90
35894;DHT22;21994;48.204;16.516;2022-12-10T14:00:40;4.30;99.90
35894;DHT22;21994;48.204;16.516;2022-12-10T14:03:19;4.30;99.90
35894;DHT22;21994;48.204;16.516;2022-12-10T14:08:27;4.20;99.90
35894;DHT22;21994;48.204;16.516;2022-12-10T14:10:56;4.30;99.90
35894;DHT22;21994;48.204;16.516;2022-12-10T14:13:25;4.20;99.90
35894;DHT22;21994;48.204;16.516;2022-12-10T14:16:05;4.20;99.90
35894;DHT22;21994;48.204;16.516;2022-12-10T14:18:31;4.20;99.90
35894;DHT22;21994;48.204;16.516;2022-12-10T14:20:57;4.20;99.90
35894;DHT22;21994;48.204;16.516;2022-12-10T14:23:30;4.10;99.90
35894;DHT22;21994;48.204;16.516;2022-12-10T14:26:13;4.10;99.90
35894;DHT22;21994;48.204;16.516;2022-12-10T14:28:50;4.10;99.90
35894;DHT22;21994;48.204;16.516;2022-12-10T14:31:33;4.20;99.90
35894;DHT22;21994;48.204;16.516;2022-12-10T14:34:05;4.20;99.90
35894;DHT22;21994;48.204;16.516;2022-12-10T14:36:32;4.10;99.90
35894;DHT22;21994;48.204;16.516;2022-12-10T14:39:26;4.10;99.90
35894;DHT22;21994;48.204;16.516;2022-12-10T14:41:55;4.10;99.90
35894;DHT22;21994;48.204;16.516;2022-12-10T14:44:23;4.10;99.90
35894;DHT22;21994;48.204;16.516;2022-12-10T14:46:49;4.10;99.90
35894;DHT22;21994;48.204;16.516;2022-12-10T14:49:25;4.10;99.90
35894;DHT22;21994;48.204;16.516;2022-12-10T14:51:51;4.10;99.90
35894;DHT22;21994;48.204;16.516;2022-12-10T14:54:32;4.10;99.90
35894;DHT22;21994;48.204;16.516;2022-12-10T14:57:08;4.10;99.90
35894;DHT22;21994;48.204;16.516;2022-12-10T14:59:39;4.10;99.90
35894;DHT22;21994;48.204;16.516;2022-12-10T15:02:16;4.00;99.90
35894;DHT22;21994;48.204;16.516;2022-12-10T15:04:47;4.10;99.90
35894;DHT22;21994;48.204;16.516;2022-12-10T15:07:14;4.10;99.90
35894;DHT22;21994;48.204;16.516;2022-12-10T15:09:43;4.00;99.90
35894;DHT22;21994;48.204;16.516;2022-12-10T15:12:31;4.10;99.90
35894;DHT22;21994;48.204;16.516;2022-12-10T15:15:33;4.00;99.90
35894;DHT22;21994;48.204;16.516;2022-12-10T15:18:14;4.00;99.90
35894;DHT22;21994;48.204;16.516;2022-12-10T15:25:50;4.00;99.90
35894;DHT22;21994;48.204;16.516;2022-12-10T15:28:22;4.00;99.90
35894;DHT22;21994;48.204;16.516;2022-12-10T15:30:56;4.00;99.90
35894;DHT22;21994;48.204;16.516;2022-12-10T15:33:28;4.00;99.90
35894;DHT22;21994;48.204;16.516;2022-12-10T15:36:00;4.00;99.90
35894;DHT22;21994;48.204;16.516;2022-12-10T15:38:26;4.00;99.90
35894;DHT22;21994;48.204;16.516;2022-12-10T15:40:59;3.90;99.90
35894;DHT22;21994;48.204;16.516;2022-12-10T15:43:27;3.90;99.90
35894;DHT22;21994;48.204;16.516;2022-12-10T15:45:55;3.90;99.90
35894;DHT22;21994;48.204;16.516;2022-12-10T15:48:21;3.90;99.90
35894;DHT22;21994;48.204;16.516;2022-12-10T15:50:53;3.90;99.90
35894;DHT22;21994;48.204;16.516;2022-12-10T15:53:28;3.80;99.90
35894;DHT22;21994;48.204;16.516;2022-12-10T15:56:01;3.80;99.90
35894;DHT22;21994;48.204;16.516;2022-12-10T15:58:28;3.80;99.90
35894;DHT22;21994;48.204;16.516;2022-12-10T16:00:53;3.80;99.90
35894;DHT22;21994;48.204;16.516;2022-12-10T16:03:19;3.80;99.90
35894;DHT22;21994;48.204;16.516;2022-12-10T16:05:46;3.70;99.90
35894;DHT22;21994;48.204;16.516;2022-12-10T16:08:18;3.70;99.90
35894;DHT22;21994;48.204;16.516;2022-12-10T16:10:49;3.70;99.90
35894;DHT22;21994;48.204;16.516;2022-12-10T16:13:18;3.70;99.90
35894;DHT22;21994;48.204;16.516;2022-12-10T16:16:00;3.80;99.90
35894;DHT22;21994;48.204;16.516;2022-12-10T16:18:28;3.60;99.90
35894;DHT22;21994;48.204;16.516;2022-12-10T16:20:54;3.60;99.90
35894;DHT22;21994;48.204;16.516;2022-12-10T16:23:19;3.70;99.90
35894;DHT22;21994;48.204;16.516;2022-12-10T16:25:45;3.60;99.90
35894;DHT22;21994;48.204;16.516;2022-12-10T16:28:16;3.60;99.90
35894;DHT22;21994;48.204;16.516;2022-12-10T16:30:47;3.70;99.90
35894;DHT22;21994;48.204;16.516;2022-12-10T16:33:24;3.70;99.90
35894;DHT22;21994;48.204;16.516;2022-12-10T16:35:51;3.70;99.90
35894;DHT22;21994;48.204;16.516;2022-12-10T16:38:17;3.70;99.90
35894;DHT22;21994;48.204;16.516;2022-12-10T16:40:44;3.70;99.90
35894;DHT22;21994;48.204;16.516;2022-12-10T16:43:20;3.60;99.90
35894;DHT22;21994;48.204;16.516;2022-12-10T16:45:47;3.70;99.90
35894;DHT22;21994;48.204;16.516;2022-12-10T16:48:13;3.70;99.90
35894;DHT22;21994;48.204;16.516;2022-12-10T16:50:39;3.70;99.90
35894;DHT22;21994;48.204;16.516;2022-12-10T16:53:16;3.70;99.90
35894;DHT22;21994;48.204;16.516;2022-12-10T16:55:43;3.70;99.90
35894;DHT22;21994;48.204;16.516;2022-12-10T16:58:10;3.70;99.90
35894;DHT22;21994;48.204;16.516;2022-12-10T17:00:36;3.70;99.90
35894;DHT22;21994;48.204;16.516;2022-12-10T17:03:02;3.70;99.90
35894;DHT22;21994;48.204;16.516;2022-12-10T17:05:35;3.70;99.90
35894;DHT22;21994;48.204;16.516;2022-12-10T17:08:04;3.80;99.90
35894;DHT22;21994;48.204;16.516;2022-12-10T17:10:30;3.80;99.90
35894;DHT22;21994;48.204;16.516;2022-12-10T17:13:14;3.80;99.90
35894;DHT22;21994;48.204;16.516;2022-12-10T17:15:41;3.80;99.90
35894;DHT22;21994;48.204;16.516;2022-12-10T17:18:15;3.80;99.90
35894;DHT22;21994;48.204;16.516;2022-12-10T17:20:45;3.70;99.90
35894;DHT22;21994;48.204;16.516;2022-12-10T17:23:12;3.80;99.90
35894;DHT22;21994;48.204;16.516;2022-12-10T17:25:38;3.80;99.90
35894;DHT22;21994;48.204;16.516;2022-12-10T17:28:04;3.80;99.90
35894;DHT22;21994;48.204;16.516;2022-12-10T17:30:31;3.80;99.90